Time;durP1;ratioP1;P1;durP2;ratioP2;P2;SDS_P1;SDS_P2;PMS_P1;PMS_P2;Temp;Humidity;BMP_temperature;BMP_pressure;BME280_temperature;BME280_humidity;BME280_pressure;Samples;Min_cycle;Max_cycle;Signal;HPM_P1;HPM_P2
2023/10/26 00:00:24;;;;;;;31.67;21.38;;;;;;;9.00;100.00;99548.19;5083655;28;20043;-70
2023/10/26 00:02:49;;;;;;;31.70;21.50;;;;;;;8.97;100.00;99544.69;5084370;28;20059;-69
2023/10/26 00:05:15;;;;;;;31.50;21.10;;;;;;;8.96;100.00;99558.78;5088026;28;20036;-69
2023/10/26 00:07:40;;;;;;;30.67;20.85;;;;;;;8.92;100.00;99557.91;5085006;28;20383;-69
2023/10/26 00:10:06;;;;;;;31.42;21.73;;;;;;;8.95;100.00;99565.78;5086674;28;20950;-69
2023/10/26 00:12:32;;;;;;;30.52;20.63;;;;;;;8.89;100.00;99568.50;5085968;28;20081;-69
2023/10/26 00:14:58;;;;;;;32.25;22.25;;;;;;;8.95;100.00;99560.50;5085542;28;20029;-67
2023/10/26 00:17:24;;;;;;;31.35;21.15;;;;;;;8.92;100.00;99568.47;5086842;28;20471;-68
2023/10/26 00:19:49;;;;;;;31.27;22.45;;;;;;;8.92;100.00;99571.09;5084288;28;20033;-68
2023/10/26 00:22:14;;;;;;;30.77;21.17;;;;;;;8.93;100.00;99575.47;5086299;28;20475;-67
2023/10/26 00:24:40;;;;;;;30.05;20.20;;;;;;;8.88;100.00;99577.28;5084528;28;20029;-67
2023/10/26 00:27:05;;;;;;;30.75;21.23;;;;;;;8.86;100.00;99576.44;5086426;28;20016;-68
2023/10/26 00:29:30;;;;;;;29.42;20.00;;;;;;;8.84;100.00;99573.81;5085390;28;20494;-68
2023/10/26 00:31:56;;;;;;;28.40;19.05;;;;;;;8.80;100.00;99577.34;5084775;28;20024;-68
2023/10/26 00:34:21;;;;;;;27.90;18.55;;;;;;;8.79;100.00;99585.28;5087070;28;20093;-68
2023/10/26 00:36:47;;;;;;;28.48;19.15;;;;;;;8.76;100.00;99583.53;5083890;28;20032;-68
2023/10/26 00:39:12;;;;;;;28.52;18.45;;;;;;;8.76;100.00;99583.53;5086883;28;20501;-68
2023/10/26 00:41:38;;;;;;;29.23;19.33;;;;;;;8.78;100.00;99589.69;5084781;28;20097;-68
2023/10/26 00:44:04;;;;;;;29.17;19.48;;;;;;;8.79;100.00;99595.81;5085739;28;20036;-68
2023/10/26 00:46:30;;;;;;;29.90;19.42;;;;;;;8.73;100.00;99594.97;5085564;28;20031;-68
2023/10/26 00:48:56;;;;;;;28.02;18.80;;;;;;;8.76;100.00;99598.47;5084526;28;20029;-67
2023/10/26 00:51:22;;;;;;;30.48;19.67;;;;;;;8.76;100.00;99614.28;5086671;28;20032;-68
2023/10/26 00:53:48;;;;;;;29.10;18.77;;;;;;;8.71;100.00;99611.69;5083624;28;20036;-68
2023/10/26 00:56:15;;;;;;;29.35;19.70;;;;;;;8.69;100.00;99603.81;5087307;28;20032;-68
2023/10/26 00:58:41;;;;;;;29.42;19.50;;;;;;;8.69;100.00;99595.91;5083988;28;20050;-68
2023/10/26 01:01:07;;;;;;;29.85;19.88;;;;;;;8.69;100.00;99605.53;5085897;28;20021;-69
2023/10/26 01:03:32;;;;;;;30.48;20.58;;;;;;;8.68;100.00;99609.09;5083844;28;20024;-68
2023/10/26 01:05:57;;;;;;;31.02;20.60;;;;;;;8.67;100.00;99605.56;5084361;28;20064;-69
2023/10/26 01:08:23;;;;;;;30.23;20.17;;;;;;;8.66;100.00;99611.69;5086471;28;20050;-69
2023/10/26 01:10:49;;;;;;;30.70;20.48;;;;;;;8.64;100.00;99608.22;5083129;28;20056;-69
2023/10/26 01:13:15;;;;;;;30.63;20.35;;;;;;;8.64;100.00;99613.47;5078751;28;20410;-69
2023/10/26 01:15:40;;;;;;;30.33;19.63;;;;;;;8.63;100.00;99605.59;5086231;28;20028;-69
2023/10/26 01:18:06;;;;;;;29.90;19.40;;;;;;;8.63;100.00;99606.44;5084139;28;20020;-70
2023/10/26 01:20:31;;;;;;;29.77;19.63;;;;;;;8.61;100.00;99602.09;5084816;28;20430;-69
2023/10/26 01:22:57;;;;;;;31.00;19.83;;;;;;;8.60;100.00;99605.63;5085572;28;20038;-69
2023/10/26 01:25:22;;;;;;;30.17;19.70;;;;;;;8.59;100.00;99603.88;5083336;28;20142;-69
2023/10/26 01:27:47;;;;;;;30.65;19.65;;;;;;;8.59;100.00;99609.13;5086611;28;20463;-69
2023/10/26 01:30:13;;;;;;;30.95;19.65;;;;;;;8.59;100.00;99604.75;5081799;28;20049;-69
2023/10/26 01:32:38;;;;;;;31.65;20.27;;;;;;;8.56;100.00;99612.66;5085470;28;20021;-69
2023/10/26 01:35:04;;;;;;;31.10;20.02;;;;;;;8.58;100.00;99617.91;5065986;28;20032;-70
2023/10/26 01:37:30;;;;;;;30.67;20.05;;;;;;;8.57;100.00;99614.41;5084422;28;20115;-69
2023/10/26 01:39:55;;;;;;;31.08;19.35;;;;;;;8.55;100.00;99611.78;5085295;28;20064;-69
2023/10/26 01:42:20;;;;;;;30.90;19.23;;;;;;;8.49;100.00;99609.19;5082829;28;20455;-70
2023/10/26 01:44:46;;;;;;;30.38;19.85;;;;;;;8.44;100.00;99620.63;5086071;28;20074;-69
2023/10/26 01:47:12;;;;;;;31.90;20.08;;;;;;;8.41;100.00;99605.69;5081682;28;20032;-69
2023/10/26 01:49:38;;;;;;;31.50;19.85;;;;;;;8.36;100.00;99613.63;5083858;28;20416;-69
2023/10/26 01:52:04;;;;;;;31.25;19.75;;;;;;;8.30;100.00;99605.78;5083938;28;20070;-71
2023/10/26 01:54:29;;;;;;;31.83;19.48;;;;;;;8.24;100.00;99608.44;5083648;28;20039;-71
2023/10/26 01:56:55;;;;;;;31.58;19.55;;;;;;;8.20;100.00;99618.13;5085222;28;20078;-71
2023/10/26 01:59:20;;;;;;;32.05;19.92;;;;;;;8.17;100.00;99620.78;5082128;28;20032;-71
2023/10/26 02:01:45;;;;;;;31.50;19.70;;;;;;;8.10;100.00;99623.44;5085725;28;20036;-71
2023/10/26 02:04:11;;;;;;;30.13;19.52;;;;;;;7.99;100.00;99613.84;5082945;28;20476;-71
2023/10/26 02:06:36;;;;;;;31.25;20.17;;;;;;;7.91;100.00;99606.88;5084240;28;20070;-71
2023/10/26 02:09:02;;;;;;;33.05;20.52;;;;;;;7.80;100.00;99601.63;5083850;28;20028;-71
2023/10/26 02:11:28;;;;;;;32.38;20.58;;;;;;;7.74;100.00;99612.19;5083154;28;20032;-71
2023/10/26 02:13:53;;;;;;;34.28;20.52;;;;;;;7.65;100.00;99597.31;5085053;28;20020;-71
2023/10/26 02:16:20;;;;;;;34.20;19.80;;;;;;;7.58;100.00;99600.84;5082049;28;20386;-71
2023/10/26 02:18:46;;;;;;;30.65;17.63;;;;;;;7.56;100.00;99598.22;5077829;28;20028;-71
2023/10/26 02:21:12;;;;;;;34.03;20.45;;;;;;;7.53;100.00;99602.59;5083364;28;20383;-71
2023/10/26 02:23:41;;;;;;;32.92;20.30;;;;;;;7.49;100.00;99597.34;5080805;28;20024;-71
2023/10/26 02:26:06;;;;;;;34.15;20.55;;;;;;;7.52;100.00;99601.75;5084103;28;20021;-71
2023/10/26 02:28:31;;;;;;;36.28;21.35;;;;;;;7.45;100.00;99598.25;5083485;28;20035;-71
2023/10/26 02:30:56;;;;;;;32.90;19.35;;;;;;;7.39;100.00;99595.63;5082359;28;20445;-70
2023/10/26 02:33:22;;;;;;;34.78;20.20;;;;;;;7.32;100.00;99594.78;5084987;28;20501;-68
2023/10/26 02:35:47;;;;;;;37.42;22.10;;;;;;;7.29;100.00;99588.66;5080248;28;20475;-69
2023/10/26 02:38:13;;;;;;;36.67;21.45;;;;;;;7.29;100.00;99584.25;5084747;28;20035;-68
2023/10/26 02:40:38;;;;;;;35.97;20.58;;;;;;;7.19;100.00;99592.19;5082321;28;20126;-68
2023/10/26 02:43:04;;;;;;;36.03;19.90;;;;;;;7.09;100.00;99581.69;5082033;28;20028;-68
2023/10/26 02:45:30;;;;;;;52.88;19.45;;;;;;;7.04;100.00;99585.19;5083911;28;20025;-68
2023/10/26 02:47:59;;;;;;;71.90;23.65;;;;;;;7.00;100.00;99596.59;5082119;28;20483;-68
2023/10/26 02:50:24;;;;;;;38.75;22.38;;;;;;;7.03;100.00;99586.94;5084244;28;20027;-68
2023/10/26 02:52:50;;;;;;;43.85;23.35;;;;;;;7.00;100.00;99592.19;5081348;28;20036;-68
2023/10/26 02:55:15;;;;;;;42.08;23.98;;;;;;;7.00;100.00;99588.69;5083407;28;20034;-67
2023/10/26 02:57:41;;;;;;;43.38;24.83;;;;;;;6.99;100.00;99590.47;5081728;28;20024;-68
2023/10/26 03:00:07;;;;;;;41.15;23.88;;;;;;;7.02;100.00;99585.19;5083485;28;20119;-67
2023/10/26 03:02:32;;;;;;;43.33;24.85;;;;;;;6.98;100.00;99586.94;5083011;28;20146;-67
2023/10/26 03:04:58;;;;;;;41.35;23.20;;;;;;;6.95;100.00;99589.56;5082033;28;20082;-68
2023/10/26 03:07:24;;;;;;;37.38;21.40;;;;;;;6.90;100.00;99588.72;5084216;28;20024;-67
2023/10/26 03:09:50;;;;;;;37.92;21.02;;;;;;;6.77;100.00;99592.19;5081035;28;20043;-67
2023/10/26 03:12:16;;;;;;;35.35;19.10;;;;;;;6.75;100.00;99588.72;5084839;28;20379;-67
2023/10/26 03:14:41;;;;;;;36.17;19.08;;;;;;;6.66;100.00;99583.47;5081749;28;20542;-69
2023/10/26 03:17:07;;;;;;;36.47;19.75;;;;;;;6.58;100.00;99589.59;5083251;28;20111;-69
2023/10/26 03:19:32;;;;;;;34.25;18.85;;;;;;;6.51;100.00;99582.59;5082665;28;20028;-69
2023/10/26 03:21:58;;;;;;;37.72;19.90;;;;;;;6.45;100.00;99593.06;5081904;28;20068;-69
2023/10/26 03:24:23;;;;;;;355.50;34.17;;;;;;;6.39;100.00;99593.06;5083829;28;20032;-69
2023/10/26 03:26:49;;;;;;;165.60;23.15;;;;;;;6.44;100.00;99596.59;5081098;28;20356;-69
2023/10/26 03:29:14;;;;;;;39.60;20.67;;;;;;;6.42;100.00;99598.31;5083843;28;20485;-69
2023/10/26 03:31:41;;;;;;;38.78;21.88;;;;;;;6.40;100.00;99593.06;5081783;28;20039;-69
2023/10/26 03:34:07;;;;;;;41.65;20.98;;;;;;;6.38;100.00;99592.19;5083128;28;20039;-69
2023/10/26 03:36:32;;;;;;;90.47;21.95;;;;;;;6.37;100.00;99590.44;5086294;28;20028;-69
2023/10/26 03:38:57;;;;;;;55.13;20.35;;;;;;;6.41;100.00;99578.22;5085667;28;20452;-69
2023/10/26 03:41:23;;;;;;;42.05;18.17;;;;;;;6.45;100.00;99587.81;5088321;28;20036;-69
2023/10/26 03:43:49;;;;;;;34.35;18.55;;;;;;;6.45;100.00;99574.69;5084869;28;20080;-69
2023/10/26 03:46:14;;;;;;;55.85;27.52;;;;;;;6.59;100.00;99572.94;5087914;28;20035;-69
2023/10/26 03:48:40;;;;;;;49.05;24.25;;;;;;;6.63;100.00;99579.94;5085748;28;20040;-69
2023/10/26 03:51:06;;;;;;;117.25;26.48;;;;;;;6.69;100.00;99575.59;5086816;28;20028;-69
2023/10/26 03:53:31;;;;;;;56.55;24.10;;;;;;;6.78;100.00;99572.94;5086877;28;20024;-69
2023/10/26 03:55:57;;;;;;;52.03;24.38;;;;;;;6.83;100.00;99562.44;5085473;28;20064;-69
2023/10/26 03:58:23;;;;;;;52.08;24.25;;;;;;;6.90;100.00;99558.94;5086471;28;20490;-69
2023/10/26 04:00:49;;;;;;;119.18;26.92;;;;;;;6.88;100.00;99558.94;5084632;28;20020;-69
2023/10/26 04:03:14;;;;;;;237.45;31.73;;;;;;;6.98;100.00;99562.44;5086692;28;20032;-69
2023/10/26 04:05:40;;;;;;;284.88;34.20;;;;;;;7.04;100.00;99558.91;5085526;28;20031;-69
2023/10/26 04:08:07;;;;;;;353.25;36.97;;;;;;;7.07;100.00;99557.16;5086558;28;20025;-69
2023/10/26 04:10:34;;;;;;;305.58;33.88;;;;;;;7.10;100.00;99561.53;5086291;28;20390;-69
2023/10/26 04:13:00;;;;;;;286.85;33.33;;;;;;;7.08;100.00;99558.03;5085522;28;20437;-69
2023/10/26 04:15:25;;;;;;;370.63;38.95;;;;;;;7.06;100.00;99557.16;5087408;28;20028;-69
2023/10/26 04:17:50;;;;;;;129.90;27.67;;;;;;;7.15;100.00;99557.16;5084170;28;20029;-69
2023/10/26 04:20:16;;;;;;;123.93;27.88;;;;;;;7.18;100.00;99557.16;5087364;28;20054;-69
2023/10/26 04:22:41;;;;;;;135.40;29.08;;;;;;;7.18;100.00;99559.78;5084978;28;20498;-69
2023/10/26 04:25:07;;;;;;;181.70;31.65;;;;;;;7.15;100.00;99552.75;5086038;28;20024;-69
2023/10/26 04:27:32;;;;;;;145.07;29.52;;;;;;;7.15;100.00;99562.41;5084782;28;20107;-69
2023/10/26 04:29:58;;;;;;;97.95;27.65;;;;;;;7.12;100.00;99559.75;5084767;28;20060;-69
2023/10/26 04:32:23;;;;;;;136.68;29.52;;;;;;;7.12;100.00;99567.66;5087169;28;20413;-69
2023/10/26 04:34:49;;;;;;;217.45;32.08;;;;;;;7.04;100.00;99567.66;5082657;28;20039;-71
2023/10/26 04:37:14;;;;;;;153.13;29.65;;;;;;;7.02;100.00;99555.41;5087034;28;20036;-72
2023/10/26 04:39:43;;;;;;;81.78;25.80;;;;;;;7.05;100.00;99556.28;5084693;28;20028;-71
2023/10/26 04:42:09;;;;;;;159.75;30.92;;;;;;;6.98;100.00;99567.69;5085949;28;20055;-71
2023/10/26 04:44:34;;;;;;;179.23;29.02;;;;;;;6.91;100.00;99563.31;5085623;28;20040;-71
2023/10/26 04:46:59;;;;;;;154.15;29.73;;;;;;;6.81;100.00;99567.69;5082823;28;20020;-71
2023/10/26 04:49:25;;;;;;;251.48;33.72;;;;;;;6.75;100.00;99559.81;5086797;28;20038;-72
2023/10/26 04:51:50;;;;;;;248.15;33.63;;;;;;;6.69;100.00;99559.84;5083797;28;20111;-71
2023/10/26 04:54:15;;;;;;;189.75;29.33;;;;;;;6.68;100.00;99550.19;5086788;28;20044;-71
2023/10/26 04:56:42;;;;;;;199.75;30.70;;;;;;;6.58;100.00;99551.94;5084212;28;20024;-71
2023/10/26 04:59:07;;;;;;;203.20;30.65;;;;;;;6.50;100.00;99549.31;5085575;28;20043;-71
2023/10/26 05:01:33;;;;;;;182.60;30.25;;;;;;;6.43;100.00;99551.06;5085578;28;20107;-71
2023/10/26 05:03:58;;;;;;;174.60;28.52;;;;;;;6.44;100.00;99546.69;5084336;28;20031;-72
2023/10/26 05:06:24;;;;;;;102.13;26.38;;;;;;;6.44;100.00;99550.19;5086528;28;20035;-71
2023/10/26 05:08:49;;;;;;;185.27;30.52;;;;;;;6.41;100.00;99546.69;5083178;28;20028;-71
2023/10/26 05:11:15;;;;;;;98.25;25.92;;;;;;;6.39;100.00;99553.69;5086331;28;20032;-71
2023/10/26 05:13:41;;;;;;;170.73;29.13;;;;;;;6.31;100.00;99543.19;5083956;28;20099;-71
2023/10/26 05:16:06;;;;;;;144.00;28.02;;;;;;;6.27;100.00;99542.28;5085172;28;20135;-72
2023/10/26 05:18:32;;;;;;;120.22;26.95;;;;;;;6.24;100.00;99544.91;5083957;28;20035;-69
2023/10/26 05:20:59;;;;;;;97.32;26.10;;;;;;;6.26;100.00;99540.56;5083796;28;20505;-67
2023/10/26 05:23:25;;;;;;;165.40;29.27;;;;;;;6.32;100.00;99544.06;5086018;28;20032;-69
2023/10/26 05:25:50;;;;;;;119.93;27.13;;;;;;;6.35;100.00;99550.19;5083139;28;20055;-71
2023/10/26 05:28:15;;;;;;;116.22;25.10;;;;;;;6.34;100.00;99542.31;5085912;28;20039;-69
2023/10/26 05:30:41;;;;;;;147.73;27.10;;;;;;;6.33;100.00;99541.44;5083561;28;20482;-71
2023/10/26 05:33:06;;;;;;;71.78;24.05;;;;;;;6.39;100.00;99543.19;5083613;28;20033;-69
2023/10/26 05:35:32;;;;;;;71.35;25.30;;;;;;;6.49;100.00;99541.44;5084809;28;20479;-71
2023/10/26 05:37:57;;;;;;;71.10;23.30;;;;;;;6.57;100.00;99535.31;5083316;28;20112;-70
2023/10/26 05:40:23;;;;;;;263.48;33.80;;;;;;;6.54;100.00;99535.31;5084901;28;20039;-70
2023/10/26 05:42:48;;;;;;;128.05;26.05;;;;;;;6.53;100.00;99543.19;5082618;28;20555;-70
2023/10/26 05:45:13;;;;;;;178.57;28.48;;;;;;;6.49;100.00;99542.31;5085622;28;20058;-70
2023/10/26 05:47:39;;;;;;;179.38;29.35;;;;;;;6.45;100.00;99541.44;5083566;28;20054;-70
2023/10/26 05:50:05;;;;;;;166.13;27.67;;;;;;;6.42;100.00;99540.56;5084083;28;20457;-68
2023/10/26 05:52:30;;;;;;;123.93;25.55;;;;;;;6.40;100.00;99544.94;5084807;28;20020;-69
2023/10/26 05:54:56;;;;;;;125.80;25.38;;;;;;;6.38;100.00;99531.81;5082800;28;20037;-70
2023/10/26 05:57:21;;;;;;;170.88;28.58;;;;;;;6.37;100.00;99532.69;5085665;28;20031;-68
2023/10/26 05:59:47;;;;;;;80.20;23.73;;;;;;;6.42;100.00;99524.81;5081142;28;20045;-68
2023/10/26 06:02:12;;;;;;;81.90;24.10;;;;;;;6.46;100.00;99521.31;5084880;28;20024;-68
2023/10/26 06:04:38;;;;;;;73.63;23.70;;;;;;;6.51;100.00;99521.31;5083399;28;20035;-67
2023/10/26 06:07:03;;;;;;;84.47;24.50;;;;;;;6.53;100.00;99516.94;5083790;28;20060;-69
2023/10/26 06:09:29;;;;;;;139.32;26.20;;;;;;;6.42;100.00;99522.19;5084687;28;20032;-68
2023/10/26 06:11:54;;;;;;;136.32;26.60;;;;;;;6.36;100.00;99524.81;5061099;28;20036;-68
2023/10/26 06:14:20;;;;;;;182.25;27.80;;;;;;;6.35;100.00;99526.56;5085595;28;20024;-68
2023/10/26 06:16:45;;;;;;;158.65;28.10;;;;;;;6.31;100.00;99529.19;5082119;28;20020;-67
2023/10/26 06:19:11;;;;;;;199.20;30.30;;;;;;;6.22;100.00;99532.69;5084580;28;20047;-68
2023/10/26 06:21:38;;;;;;;124.18;24.95;;;;;;;6.17;100.00;99529.16;5082193;28;20055;-67
2023/10/26 06:24:05;;;;;;;204.07;26.08;;;;;;;6.09;100.00;99537.03;5083183;28;20020;-69
2023/10/26 06:26:30;;;;;;;231.32;27.55;;;;;;;5.99;100.00;99528.25;5084287;28;20035;-68
2023/10/26 06:28:56;;;;;;;156.25;24.88;;;;;;;6.02;100.00;99516.91;5082320;28;20387;-68
2023/10/26 06:31:21;;;;;;;171.48;26.70;;;;;;;6.07;100.00;99523.03;5084915;28;20044;-68
2023/10/26 06:33:47;;;;;;;152.20;26.83;;;;;;;6.03;100.00;99522.16;5081737;28;20036;-67
2023/10/26 06:36:12;;;;;;;99.00;24.27;;;;;;;6.05;100.00;99527.41;5082883;28;20035;-69
2023/10/26 06:38:39;;;;;;;112.18;24.85;;;;;;;6.10;100.00;99528.28;5082715;28;20382;-68
2023/10/26 06:41:08;;;;;;;115.63;25.58;;;;;;;6.16;100.00;99523.06;5083052;28;20504;-68
2023/10/26 07:20:48;;;;;;;168.27;27.10;;;;;;;6.94;100.00;99516.88;5192963;27;20386;-70
2023/10/26 14:51:37;;;;;;;29.77;19.45;;;;;;;11.73;100.00;99310.19;5069627;28;20804;-70
2023/10/26 14:54:02;;;;;;;28.67;18.45;;;;;;;11.73;100.00;99310.19;5069494;28;20033;-72
2023/10/26 14:56:28;;;;;;;28.83;18.77;;;;;;;11.74;100.00;99306.66;5066978;28;20028;-73
2023/10/26 14:58:54;;;;;;;29.77;19.13;;;;;;;11.73;100.00;99301.41;5068106;28;20029;-72
2023/10/26 15:01:20;;;;;;;30.02;19.67;;;;;;;11.79;100.00;99302.09;5068793;28;20032;-72
2023/10/26 15:03:45;;;;;;;29.70;19.35;;;;;;;11.77;100.00;99311.88;5069548;28;20071;-69
2023/10/26 15:06:11;;;;;;;29.77;19.08;;;;;;;11.79;100.00;99304.72;5068376;28;20366;-69
2023/10/26 15:08:36;;;;;;;30.25;19.40;;;;;;;11.80;100.00;99302.97;5069213;28;20036;-70
2023/10/26 15:11:01;;;;;;;29.80;20.27;;;;;;;11.68;100.00;99294.44;5069700;28;20029;-71
2023/10/26 15:13:27;;;;;;;29.55;19.70;;;;;;;11.59;100.00;99289.38;5068933;28;20021;-72
2023/10/26 15:15:59;;;;;;;29.98;20.17;;;;;;;11.57;100.00;99295.59;5069047;28;20037;-71
2023/10/26 15:18:25;;;;;;;;;;;;;;;11.61;100.00;99291.97;5069587;28;20021;-70
2023/10/26 15:20:50;;;;;;;31.15;20.38;;;;;;;11.48;100.00;99294.91;5069148;28;19966;-73
2023/10/26 15:23:16;;;;;;;31.20;20.42;;;;;;;11.39;100.00;99287.19;5068844;28;20124;-69
2023/10/26 15:25:41;;;;;;;31.65;21.05;;;;;;;11.31;100.00;99289.16;5069203;28;20025;-69
2023/10/26 15:28:06;;;;;;;34.53;22.05;;;;;;;11.22;100.00;99290.22;5068913;28;20393;-69
2023/10/26 15:30:32;;;;;;;32.85;21.35;;;;;;;11.18;100.00;99287.69;5068716;28;20119;-68
2023/10/26 15:32:58;;;;;;;32.58;22.25;;;;;;;11.13;100.00;99278.09;5069010;28;20025;-68
2023/10/26 15:35:23;;;;;;;31.23;21.67;;;;;;;11.11;100.00;99277.25;5068452;28;20029;-68
2023/10/26 15:37:49;;;;;;;32.97;22.52;;;;;;;11.03;100.00;99273.91;5068314;28;20382;-68
2023/10/26 15:40:15;;;;;;;33.17;22.27;;;;;;;10.96;100.00;99272.31;5068243;28;20463;-68
2023/10/26 15:42:40;;;;;;;32.85;22.40;;;;;;;10.99;100.00;99273.13;5068577;28;20040;-68
2023/10/26 15:45:06;;;;;;;32.92;22.40;;;;;;;10.94;100.00;99275.00;5068434;28;20475;-68
2023/10/26 15:47:31;;;;;;;34.08;22.77;;;;;;;10.99;100.00;99275.78;5064876;28;20518;-68
2023/10/26 15:49:56;;;;;;;34.22;23.10;;;;;;;10.98;100.00;99283.75;5061280;28;20053;-68
2023/10/26 15:52:22;;;;;;;32.88;22.63;;;;;;;10.99;100.00;99294.28;5036404;28;20033;-68
2023/10/26 15:54:47;;;;;;;32.83;22.67;;;;;;;10.98;100.00;99297.81;5035632;28;20049;-68
2023/10/26 15:57:14;;;;;;;32.50;22.50;;;;;;;10.91;100.00;99300.63;5035324;28;20033;-68
2023/10/26 15:59:40;;;;;;;32.85;21.98;;;;;;;10.79;100.00;99307.91;5035056;28;20034;-68
2023/10/26 16:02:06;;;;;;;33.30;23.02;;;;;;;10.62;100.00;99308.25;5035342;28;20037;-69
2023/10/26 16:04:34;;;;;;;34.22;23.73;;;;;;;10.46;100.00;99309.47;5035171;28;20030;-69
2023/10/26 16:06:59;;;;;;;34.30;23.42;;;;;;;10.42;100.00;99315.72;5035070;28;20025;-69
2023/10/26 16:09:27;;;;;;;32.33;21.30;;;;;;;10.36;100.00;99315.84;5035329;28;20365;-69
2023/10/26 16:11:53;;;;;;;31.80;21.60;;;;;;;10.32;100.00;99312.31;5035049;28;20018;-69
2023/10/26 16:14:18;;;;;;;30.95;20.98;;;;;;;10.35;100.00;99317.59;5034958;28;20064;-68
2023/10/26 16:16:43;;;;;;;31.42;20.75;;;;;;;10.37;100.00;99321.09;5035066;28;20105;-69
2023/10/26 16:19:09;;;;;;;31.20;20.80;;;;;;;10.37;100.00;99310.53;5034818;28;20033;-69
2023/10/26 16:21:35;;;;;;;31.88;20.88;;;;;;;10.40;100.00;99313.09;5035108;28;20030;-69
2023/10/26 16:24:00;;;;;;;30.33;20.48;;;;;;;10.41;100.00;99319.25;5034776;28;20040;-69
2023/10/26 16:26:26;;;;;;;30.40;20.77;;;;;;;10.40;100.00;99313.09;5034824;28;20113;-69
2023/10/26 16:28:51;;;;;;;31.05;20.80;;;;;;;10.43;100.00;99320.09;5035347;28;20442;-66
2023/10/26 16:31:16;;;;;;;32.83;22.02;;;;;;;10.49;100.00;99324.41;5034601;28;20357;-67
2023/10/26 16:33:42;;;;;;;32.38;21.75;;;;;;;10.42;100.00;99324.50;5034769;28;20124;-66
2023/10/26 16:36:07;;;;;;;33.35;22.48;;;;;;;10.41;100.00;99332.44;5034848;28;20061;-66
2023/10/26 16:38:32;;;;;;;32.60;21.77;;;;;;;10.39;100.00;99321.91;5034734;28;20032;-66
2023/10/26 16:40:58;;;;;;;32.67;22.42;;;;;;;10.41;100.00;99321.88;5034465;28;20052;-67
2023/10/26 16:43:24;;;;;;;33.35;21.80;;;;;;;10.39;100.00;99324.56;5034673;28;20108;-67
2023/10/26 16:45:50;;;;;;;33.50;22.50;;;;;;;10.40;100.00;99323.66;5034436;28;20029;-67
2023/10/26 16:48:16;;;;;;;33.08;22.17;;;;;;;10.43;100.00;99325.38;5034254;28;20483;-67
2023/10/26 16:50:43;;;;;;;32.25;21.88;;;;;;;10.37;100.00;99329.00;5034324;28;20053;-66
2023/10/26 16:53:09;;;;;;;33.38;22.70;;;;;;;10.42;100.00;99327.13;5034268;28;20029;-66
2023/10/26 16:55:34;;;;;;;33.78;22.35;;;;;;;10.42;100.00;99319.22;5034264;28;20030;-66
2023/10/26 16:57:59;;;;;;;32.53;21.75;;;;;;;10.41;100.00;99325.41;5034400;28;20052;-66
2023/10/26 17:00:25;;;;;;;33.38;22.10;;;;;;;10.35;100.00;99325.50;5034083;28;20044;-66
2023/10/26 17:02:50;;;;;;;33.13;22.15;;;;;;;10.29;100.00;99328.25;5033193;28;20034;-66
2023/10/26 17:05:16;;;;;;;33.80;22.63;;;;;;;10.26;100.00;99329.16;5034299;28;20029;-66
2023/10/26 17:07:44;;;;;;;32.65;22.23;;;;;;;10.27;100.00;99337.97;5032706;28;20037;-66
2023/10/26 17:10:10;;;;;;;34.40;22.52;;;;;;;10.22;100.00;99330.13;5034473;28;20132;-66
2023/10/26 17:12:35;;;;;;;33.85;22.65;;;;;;;10.20;100.00;99325.78;5033920;28;20480;-68
2023/10/26 17:15:01;;;;;;;34.38;23.15;;;;;;;10.16;100.00;99322.31;5033865;28;20159;-69
2023/10/26 17:17:26;;;;;;;35.88;23.48;;;;;;;10.12;100.00;99312.72;5033967;28;20072;-69
2023/10/26 17:19:52;;;;;;;34.85;23.27;;;;;;;10.04;100.00;99331.31;5033669;28;20487;-69
2023/10/26 17:22:18;;;;;;;36.10;23.67;;;;;;;10.05;100.00;99327.78;5033682;28;20021;-69
2023/10/26 17:24:44;;;;;;;35.63;24.88;;;;;;;10.09;100.00;99332.13;5033929;28;20029;-69
2023/10/26 17:27:10;;;;;;;35.80;24.02;;;;;;;10.09;100.00;99339.16;5033878;28;20175;-69
2023/10/26 17:29:35;;;;;;;36.72;24.13;;;;;;;10.06;100.00;99336.56;5033690;28;20057;-68
2023/10/26 17:32:01;;;;;;;36.72;24.52;;;;;;;9.99;100.00;99340.22;5033645;28;20026;-69
2023/10/26 17:34:26;;;;;;;37.17;25.13;;;;;;;10.00;100.00;99337.53;5033417;28;20563;-69
2023/10/26 17:36:52;;;;;;;37.20;24.77;;;;;;;10.03;100.00;99332.25;5033443;28;20021;-69
2023/10/26 17:39:19;;;;;;;36.38;24.83;;;;;;;10.05;100.00;99325.16;5033707;28;20062;-69
2023/10/26 17:41:45;;;;;;;37.28;24.98;;;;;;;10.08;100.00;99329.50;5033425;28;20109;-69
2023/10/26 17:44:11;;;;;;;35.83;24.67;;;;;;;10.07;100.00;99322.47;5033287;28;20021;-68
2023/10/26 17:46:36;;;;;;;37.92;24.95;;;;;;;10.06;100.00;99313.69;5033479;28;20040;-68
2023/10/26 17:49:02;;;;;;;38.67;25.83;;;;;;;10.04;100.00;99318.13;5033127;28;20116;-68
2023/10/26 17:51:29;;;;;;;37.95;25.27;;;;;;;10.03;100.00;99316.41;5032927;28;20053;-67
2023/10/26 17:53:55;;;;;;;38.63;26.05;;;;;;;10.04;100.00;99323.41;5033350;28;20388;-70
2023/10/26 17:56:21;;;;;;;39.50;25.88;;;;;;;10.06;100.00;99323.38;5033099;28;20041;-69
2023/10/26 17:58:48;;;;;;;37.45;25.05;;;;;;;10.07;100.00;99320.69;5033047;28;20030;-68
2023/10/26 18:01:15;;;;;;;38.53;25.92;;;;;;;10.08;100.00;99309.25;5033186;28;20029;-69
2023/10/26 18:03:41;;;;;;;39.35;25.60;;;;;;;10.12;100.00;99305.66;5033120;28;20397;-68
2023/10/26 18:06:06;;;;;;;37.22;25.00;;;;;;;10.08;100.00;99303.13;5033379;28;20155;-69
2023/10/26 18:08:33;;;;;;;39.30;23.73;;;;;;;10.10;100.00;99307.44;5033002;28;20468;-69
2023/10/26 18:10:59;;;;;;;35.22;24.30;;;;;;;10.07;100.00;99294.28;5032789;28;20040;-69
2023/10/26 18:13:25;;;;;;;38.15;25.73;;;;;;;10.10;100.00;99298.66;5033068;28;20026;-69
2023/10/26 18:15:55;;;;;;;36.22;24.40;;;;;;;10.06;100.00;99297.88;5032470;28;20033;-69
2023/10/26 18:18:21;;;;;;;35.92;23.13;;;;;;;10.04;100.00;99289.06;5032773;28;20116;-68
2023/10/26 18:21:01;;;;;;;34.40;22.42;;;;;;;10.05;100.00;99296.09;5032483;28;20026;-68
2023/10/26 18:23:29;;;;;;;34.75;22.30;;;;;;;10.06;100.00;99295.22;5032896;28;20053;-69
2023/10/26 18:26:08;;;;;;;34.42;21.77;;;;;;;10.04;100.00;99291.72;5032753;28;20029;-67
2023/10/26 18:28:41;;;;;;;34.67;21.58;;;;;;;9.98;100.00;99290.97;5028856;28;20022;-67
2023/10/26 18:31:13;;;;;;;;;;;;;;;10.02;100.00;99295.28;5029419;28;20032;-66
2023/10/26 18:33:44;;;;;;;34.67;21.80;;;;;;;9.92;100.00;99295.44;5029322;28;19913;-66
2023/10/26 18:36:18;;;;;;;33.00;21.55;;;;;;;9.82;100.00;99287.72;5032802;28;20021;-66
2023/10/26 18:38:44;;;;;;;35.00;22.05;;;;;;;9.77;100.00;99287.78;5032537;28;20026;-68
2023/10/26 18:41:27;;;;;;;33.65;21.98;;;;;;;9.68;100.00;99283.53;5032344;28;20084;-67
2023/10/26 18:43:53;;;;;;;35.78;25.48;;;;;;;9.57;100.00;99282.88;5032844;28;20072;-67
2023/10/26 18:46:19;;;;;;;32.33;21.05;;;;;;;9.51;100.00;99275.03;5032604;28;20116;-67
2023/10/26 18:48:44;;;;;;;33.17;21.27;;;;;;;9.43;100.00;99269.88;5032498;28;20030;-66
2023/10/26 18:51:10;;;;;;;34.70;22.23;;;;;;;9.33;100.00;99281.47;5064206;28;20058;-66
2023/10/26 18:53:38;;;;;;;34.58;21.52;;;;;;;9.34;100.00;99286.72;5032625;28;20021;-66
2023/10/26 18:56:04;;;;;;;34.25;21.83;;;;;;;9.34;100.00;99280.59;5028505;28;20148;-67
2023/10/26 18:58:30;;;;;;;33.00;20.85;;;;;;;9.32;100.00;99285.88;5031015;28;20120;-66
2023/10/26 19:00:56;;;;;;;33.80;21.90;;;;;;;9.35;100.00;99287.59;5032726;28;20022;-67
2023/10/26 19:03:22;;;;;;;35.22;22.98;;;;;;;9.39;100.00;99279.63;5032555;28;20032;-66
2023/10/26 19:05:49;;;;;;;35.85;23.33;;;;;;;9.45;100.00;99283.94;5032594;28;20033;-67
2023/10/26 19:08:16;;;;;;;36.20;23.45;;;;;;;9.51;100.00;99288.22;5032434;28;20040;-67
2023/10/26 19:10:42;;;;;;;35.92;24.40;;;;;;;9.54;100.00;99281.16;5032203;28;20112;-69
2023/10/26 19:13:08;;;;;;;35.08;23.00;;;;;;;9.57;100.00;99294.28;5032195;28;20125;-69